Etusivu
METAR-TAF:

METAR-TAF

Lentoasemat :

Aupaluk, Quebec, Kanada

Leveyspiiri: 59-17-48N, Pituuspiiri: 069-35-59W, korkeus merenpinnasta: 35 m

Tämänhetkinen sää

Tämä raportti tehtiin 39 minuuttia sitten, kello 19.00 UTC
Tuuli 13 kn pohjoisesta puuskistuen 18 kn:hen
Lämpötila -6°C
Kosteus 86%
Ilmanpaine 1018 hPa
Näkyvyys: 24.1 km
Pilvistä 900 ft:n korkeudessa

METAR: CYLA 081900Z 01013G18KT 15SM OVC009 M06/M08 A3005 RMK SC8 LAST STFD OBS/NEXT 091200UTC SLP182

Aika: 15:39 (19:39 UTC)


TAF: puuttuu

Säähavainnot ja -ennusteet yli 4000 lentoasemalta (METAR- ja TAF-raportit).

Käytössä olevat sääasemat on merkitty karttaan keltaisilla ja punaisilla pisteillä.

Aseta hiiri pisteen päälle nähdäksesi sääaseman nimen.

Klikkaa sitten nähdäksesi säähavainnot ja -ennusteet.

Kartan vaihtaminen: klikkaa mustalla rastilla varustettuja vihreitä pisteitä, niin voit zoomata sisään; viivalla varustettua vihreää pistettä, niin voit zoomata ulos tai vihreitä nuolia, niin pääset viereisille kartoille.


METAR-TAF: